Terminal Aerodrome Forecast
Issued by NWS Newport/Morehead City, NC

Home | Current Version | Previous Version | Graphics & Text | Print | Product List | Glossary On
Versions: 1 2 3 4 5 6 7 8 9 10 11 12 13 14 15 16 17 18 19
455
FTUS42 KMHX 240539
TAFEWN
TAF
KEWN 240539Z 2406/2506 00000KT 3SM BR SCT200
      TEMPO 2406/2410 1SM BR
     FM241000 00000KT 5SM BR SCT200
      TEMPO 2410/2411 1SM BR
     FM241400 VRB04KT P6SM SCT200=

USA.gov is the U.S. government's official web portal to all federal, state and local government web resources and services.